createdAt,value
2023-05-13T00:02:14.860Z,21.60
2023-05-13T00:04:42.819Z,22.43
2023-05-13T00:07:10.686Z,19.53
2023-05-13T00:09:38.653Z,19.50
2023-05-13T00:12:07.241Z,18.50
2023-05-13T00:14:35.412Z,19.77
2023-05-13T00:17:05.089Z,18.80
2023-05-13T00:19:33.421Z,18.67
2023-05-13T00:22:01.496Z,19.90
2023-05-13T00:24:29.588Z,20.17
2023-05-13T00:26:57.303Z,20.70
2023-05-13T00:29:25.548Z,20.30
2023-05-13T00:31:53.432Z,20.27
2023-05-13T00:34:21.254Z,21.50
2023-05-13T00:36:49.175Z,21.97
2023-05-13T00:39:17.043Z,20.43
2023-05-13T00:41:46.486Z,20.00
2023-05-13T00:44:14.759Z,17.13
2023-05-13T00:46:44.005Z,16.30
2023-05-13T00:49:12.068Z,16.10
2023-05-13T00:51:40.245Z,16.90
2023-05-13T00:54:08.322Z,15.13
2023-05-13T00:56:39.591Z,14.97
2023-05-13T00:59:07.620Z,16.10
2023-05-13T01:01:58.596Z,15.17
2023-05-13T01:05:07.156Z,17.33
2023-05-13T01:07:58.085Z,16.10
2023-05-13T01:10:50.356Z,16.97
2023-05-13T01:13:35.516Z,17.90
2023-05-13T01:16:41.361Z,17.57
2023-05-13T01:19:46.815Z,22.33
2023-05-13T01:22:14.946Z,21.17
2023-05-13T01:24:43.156Z,21.97
2023-05-13T01:27:11.927Z,24.60
2023-05-13T01:29:41.076Z,21.90
2023-05-13T01:32:12.805Z,23.10
2023-05-13T01:34:43.667Z,24.00
2023-05-13T01:37:11.861Z,23.47
2023-05-13T01:39:42.041Z,26.30
2023-05-13T01:42:14.444Z,24.80
2023-05-13T01:44:43.929Z,24.17
2023-05-13T01:47:11.964Z,24.37
2023-05-13T01:49:39.867Z,26.07
2023-05-13T01:52:08.694Z,24.70
2023-05-13T01:54:36.777Z,25.37
2023-05-13T01:57:09.592Z,24.50
2023-05-13T01:59:37.671Z,25.43
2023-05-13T02:02:06.298Z,26.50
2023-05-13T02:04:34.743Z,25.80
2023-05-13T02:07:02.574Z,27.23
2023-05-13T02:09:32.557Z,25.07
2023-05-13T02:12:00.549Z,27.20
2023-05-13T02:14:29.820Z,26.60
2023-05-13T02:16:58.649Z,25.63
2023-05-13T02:19:26.833Z,27.07
2023-05-13T02:21:55.083Z,26.53
2023-05-13T02:24:23.590Z,26.40
2023-05-13T02:26:51.482Z,27.47
2023-05-13T02:29:19.482Z,27.07
2023-05-13T02:31:47.802Z,28.63
2023-05-13T02:34:15.751Z,27.03
2023-05-13T02:36:43.877Z,31.40
2023-05-13T02:39:11.637Z,29.80
2023-05-13T02:41:39.685Z,27.70
2023-05-13T02:44:07.655Z,27.43
2023-05-13T02:46:35.702Z,25.23
2023-05-13T02:49:04.243Z,26.77
2023-05-13T02:51:32.832Z,26.37
2023-05-13T02:54:01.081Z,25.93
2023-05-13T02:56:31.039Z,25.50
2023-05-13T02:58:59.402Z,25.83
2023-05-13T03:01:27.691Z,26.63
2023-05-13T03:03:55.932Z,27.37
2023-05-13T03:06:23.659Z,27.57
2023-05-13T03:08:51.831Z,26.40
2023-05-13T03:11:19.541Z,28.40
2023-05-13T03:13:47.358Z,28.13
2023-05-13T03:16:15.581Z,30.00
2023-05-13T03:18:43.598Z,30.47
2023-05-13T03:21:11.624Z,29.50
2023-05-13T03:23:40.290Z,30.80
2023-05-13T03:26:08.412Z,29.47
2023-05-13T03:28:36.381Z,32.10
2023-05-13T03:31:04.526Z,32.30
2023-05-13T03:33:36.883Z,45.07
2023-05-13T03:36:07.172Z,53.17
2023-05-13T03:38:35.132Z,49.57
2023-05-13T03:41:03.226Z,48.17
2023-05-13T03:43:31.122Z,41.80
2023-05-13T03:46:02.693Z,37.00
2023-05-13T03:48:31.240Z,36.60
2023-05-13T03:51:02.911Z,35.97
2023-05-13T03:53:31.466Z,38.13
2023-05-13T03:55:59.250Z,37.13
2023-05-13T03:58:29.528Z,44.10
2023-05-13T04:00:58.778Z,48.57
2023-05-13T04:03:27.938Z,40.30
2023-05-13T04:05:56.191Z,48.50
2023-05-13T04:08:24.130Z,42.63
2023-05-13T04:10:52.561Z,36.87
2023-05-13T04:13:20.449Z,38.87
2023-05-13T04:15:48.737Z,37.20
2023-05-13T04:18:16.865Z,35.27
2023-05-13T04:20:44.775Z,35.97
2023-05-13T04:23:12.670Z,34.03
2023-05-13T04:25:42.799Z,33.57
2023-05-13T04:28:10.751Z,35.13
2023-05-13T04:30:43.318Z,34.90
2023-05-13T04:33:11.810Z,33.77
2023-05-13T04:35:43.581Z,32.17
2023-05-13T04:38:12.848Z,32.47
2023-05-13T04:40:40.794Z,32.17
2023-05-13T04:43:13.540Z,32.87
2023-05-13T04:45:49.617Z,29.00
2023-05-13T04:48:17.786Z,30.47
2023-05-13T04:50:48.095Z,29.23
2023-05-13T04:53:17.739Z,30.97
2023-05-13T04:55:50.550Z,31.40
2023-05-13T04:58:18.465Z,29.80
2023-05-13T05:00:46.887Z,29.70
2023-05-13T05:03:15.220Z,30.03
2023-05-13T05:05:43.322Z,32.13
2023-05-13T05:08:13.282Z,32.53
2023-05-13T05:10:42.552Z,29.67
2023-05-13T05:13:12.649Z,30.90
2023-05-13T05:15:41.802Z,30.50
2023-05-13T05:18:10.554Z,30.83
2023-05-13T05:20:40.780Z,29.67
2023-05-13T05:23:14.942Z,31.13
2023-05-13T05:25:42.903Z,27.57
2023-05-13T05:28:10.943Z,29.90
2023-05-13T05:30:42.379Z,30.77
2023-05-13T05:33:27.288Z,27.27
2023-05-13T05:35:55.495Z,26.83
2023-05-13T05:38:27.001Z,27.67
2023-05-13T05:40:57.021Z,25.53
2023-05-13T05:43:25.104Z,22.47
2023-05-13T05:45:53.747Z,22.27
2023-05-13T05:48:22.904Z,17.00
2023-05-13T05:50:51.415Z,11.30
2023-05-13T05:53:26.341Z,9.60
2023-05-13T05:55:55.053Z,8.63
2023-05-13T05:58:23.277Z,7.40
2023-05-13T06:00:52.182Z,8.60
2023-05-13T06:03:21.687Z,8.20
2023-05-13T06:05:52.553Z,8.50
2023-05-13T06:08:21.431Z,8.20
2023-05-13T06:10:49.291Z,8.97
2023-05-13T06:13:17.635Z,8.10
2023-05-13T06:15:46.278Z,8.53
2023-05-13T06:18:14.899Z,7.50
2023-05-13T06:20:42.880Z,7.47
2023-05-13T06:23:11.373Z,8.03
2023-05-13T06:25:39.323Z,7.90
2023-05-13T06:28:10.809Z,7.57
2023-05-13T06:30:38.815Z,7.57
2023-05-13T06:33:08.359Z,8.33
2023-05-13T06:35:39.235Z,7.37
2023-05-13T06:38:07.978Z,7.50
2023-05-13T06:40:36.800Z,7.40
2023-05-13T06:43:06.423Z,8.17
2023-05-13T06:45:39.121Z,7.03
2023-05-13T06:48:07.338Z,6.77
2023-05-13T06:50:35.653Z,7.93
2023-05-13T06:53:03.624Z,6.93
2023-05-13T06:55:31.888Z,7.27
2023-05-13T06:57:59.767Z,7.20
2023-05-13T07:00:27.529Z,7.13
2023-05-13T07:02:55.445Z,6.77
2023-05-13T07:05:23.564Z,5.93
2023-05-13T07:07:53.790Z,8.00
2023-05-13T07:10:21.792Z,6.40
2023-05-13T07:12:50.337Z,6.23
2023-05-13T07:15:18.361Z,6.23
2023-05-13T07:17:46.203Z,6.70
2023-05-13T07:20:14.184Z,5.90
2023-05-13T07:22:42.049Z,6.90
2023-05-13T07:25:10.985Z,5.43
2023-05-13T07:27:38.965Z,5.43
2023-05-13T07:30:08.632Z,7.17
2023-05-13T07:32:37.270Z,6.70
2023-05-13T07:35:06.652Z,6.60
2023-05-13T07:37:34.959Z,6.07
2023-05-13T07:40:04.415Z,6.30
2023-05-13T07:42:32.530Z,6.73
2023-05-13T07:45:00.707Z,6.40
2023-05-13T07:47:29.488Z,6.10
2023-05-13T07:49:58.460Z,6.07
2023-05-13T07:52:27.683Z,6.90
2023-05-13T07:54:55.940Z,6.20
2023-05-13T07:57:24.035Z,6.27
2023-05-13T07:59:53.779Z,6.00
2023-05-13T08:02:22.158Z,6.50
2023-05-13T08:04:50.235Z,6.40
2023-05-13T08:07:18.651Z,6.47
2023-05-13T08:09:46.910Z,6.23
2023-05-13T08:12:14.794Z,6.90
2023-05-13T08:14:42.768Z,6.30
2023-05-13T08:17:10.735Z,5.23
2023-05-13T08:19:39.105Z,5.30
2023-05-13T08:22:07.120Z,5.40
2023-05-13T08:24:35.322Z,5.00
2023-05-13T08:27:03.723Z,5.27
2023-05-13T08:29:31.419Z,6.10
2023-05-13T08:31:59.333Z,5.40
2023-05-13T08:34:27.509Z,5.03
2023-05-13T08:36:55.449Z,5.90
2023-05-13T08:39:23.904Z,5.10
2023-05-13T08:41:58.133Z,4.63
2023-05-13T08:44:32.386Z,5.10
2023-05-13T08:47:57.012Z,5.37
2023-05-13T08:50:27.927Z,5.53
2023-05-13T08:52:58.671Z,5.67
2023-05-13T08:55:28.692Z,5.23
2023-05-13T08:57:57.596Z,5.47
2023-05-13T09:00:26.072Z,4.47
2023-05-13T09:02:54.334Z,5.33
2023-05-13T09:05:24.974Z,5.90
2023-05-13T09:07:55.158Z,5.00
2023-05-13T09:10:23.111Z,4.80
2023-05-13T09:12:57.784Z,4.53
2023-05-13T09:15:29.326Z,5.30
2023-05-13T09:18:08.614Z,7.20
2023-05-13T09:20:38.152Z,6.47
2023-05-13T09:23:13.393Z,5.90
2023-05-13T09:25:41.864Z,6.43
2023-05-13T09:28:15.165Z,4.40
2023-05-13T09:30:46.885Z,4.90
2023-05-13T09:33:20.285Z,4.10
2023-05-13T09:35:54.028Z,4.40
2023-05-13T09:38:27.903Z,5.10
2023-05-13T09:41:03.457Z,5.60
2023-05-13T09:43:35.021Z,4.60
2023-05-13T09:46:05.771Z,4.57
2023-05-13T09:48:36.693Z,9.80
2023-05-13T09:51:06.058Z,8.50
2023-05-13T09:53:37.122Z,5.10
2023-05-13T09:56:12.524Z,4.17
2023-05-13T09:58:55.122Z,5.13
2023-05-13T10:01:30.133Z,4.93
2023-05-13T10:04:00.982Z,4.77
2023-05-13T10:06:34.079Z,5.67
2023-05-13T10:09:11.230Z,6.87
2023-05-13T10:11:50.021Z,5.97
2023-05-13T10:14:24.458Z,5.17
2023-05-13T10:16:57.565Z,5.20
2023-05-13T10:19:27.210Z,5.00
2023-05-13T10:21:57.840Z,5.43
2023-05-13T10:24:29.094Z,4.80
2023-05-13T10:27:01.960Z,6.57
2023-05-13T10:29:31.095Z,4.30
2023-05-13T10:32:00.886Z,4.67
2023-05-13T10:34:35.007Z,5.23
2023-05-13T10:37:54.408Z,8.83
2023-05-13T10:41:36.460Z,19.50
2023-05-13T10:44:09.272Z,5.07
2023-05-13T10:46:39.911Z,4.57
2023-05-13T10:49:16.497Z,6.80
2023-05-13T10:51:49.648Z,4.90
2023-05-13T10:54:27.799Z,5.60
2023-05-13T10:57:02.523Z,5.27
2023-05-13T10:59:31.095Z,4.37
2023-05-13T11:02:23.633Z,4.80
2023-05-13T11:05:02.304Z,4.80
2023-05-13T11:07:31.196Z,5.37
2023-05-13T11:10:00.786Z,5.53
2023-05-13T11:12:28.733Z,5.50
2023-05-13T11:14:57.471Z,5.23
2023-05-13T11:17:26.210Z,5.73
2023-05-13T11:19:56.871Z,4.10
2023-05-13T11:22:24.805Z,4.50
2023-05-13T11:25:10.992Z,4.50
2023-05-13T11:27:43.031Z,4.57
2023-05-13T11:30:29.499Z,4.20
2023-05-13T11:33:06.602Z,4.40
2023-05-13T11:35:35.418Z,4.10
2023-05-13T11:38:05.872Z,4.60
2023-05-13T11:40:38.927Z,4.20
2023-05-13T11:43:09.283Z,3.63
2023-05-13T11:45:41.353Z,4.23
2023-05-13T11:48:24.555Z,4.10
2023-05-13T11:50:53.061Z,4.10
2023-05-13T11:53:22.966Z,3.67
2023-05-13T11:55:51.921Z,4.47
2023-05-13T11:58:22.433Z,4.50
2023-05-13T12:00:51.585Z,4.87
2023-05-13T12:03:19.542Z,4.70
2023-05-13T12:05:49.426Z,4.23
2023-05-13T12:08:17.464Z,5.23
2023-05-13T12:10:46.301Z,4.73
2023-05-13T12:13:15.008Z,3.70
2023-05-13T12:15:43.817Z,4.40
2023-05-13T12:18:12.745Z,3.87
2023-05-13T12:20:40.778Z,3.77
2023-05-13T12:23:14.212Z,3.97
2023-05-13T12:25:53.722Z,3.90
2023-05-13T12:28:27.583Z,4.20
2023-05-13T12:31:06.118Z,3.80
2023-05-13T12:33:44.324Z,3.60
2023-05-13T12:36:35.991Z,5.20
2023-05-13T12:39:12.334Z,5.27
2023-05-13T12:41:50.842Z,3.93
2023-05-13T12:44:19.238Z,4.20
2023-05-13T12:47:01.370Z,4.03
2023-05-13T12:49:29.328Z,4.10
2023-05-13T12:51:57.268Z,4.03
2023-05-13T12:54:25.156Z,3.80
2023-05-13T12:56:53.474Z,4.10
2023-05-13T12:59:21.249Z,4.83
2023-05-13T13:01:50.036Z,4.77
2023-05-13T13:04:19.228Z,5.10
2023-05-13T13:06:47.206Z,5.00
2023-05-13T13:09:15.036Z,4.33
2023-05-13T13:11:43.427Z,6.03
2023-05-13T13:14:11.605Z,4.27
2023-05-13T13:16:39.803Z,4.77
2023-05-13T13:19:07.799Z,5.27
2023-05-13T13:21:35.622Z,4.00
2023-05-13T13:24:04.680Z,3.50
2023-05-13T13:26:32.648Z,4.40
2023-05-13T13:29:00.843Z,5.10
2023-05-13T13:31:28.896Z,5.20
2023-05-13T13:34:00.657Z,4.60
2023-05-13T13:36:29.011Z,4.30
2023-05-13T13:38:56.987Z,4.60
2023-05-13T13:41:25.877Z,4.80
2023-05-13T13:43:53.700Z,4.77
2023-05-13T13:46:21.886Z,3.77
2023-05-13T13:48:49.850Z,4.20
2023-05-13T13:51:18.095Z,4.90
2023-05-13T13:53:45.857Z,4.77
2023-05-13T13:56:15.575Z,3.73
2023-05-13T13:58:43.593Z,4.57
2023-05-13T14:01:12.422Z,6.23
2023-05-13T14:03:40.636Z,4.90
2023-05-13T14:06:09.200Z,4.10
2023-05-13T14:08:37.145Z,3.97
2023-05-13T14:11:05.460Z,3.87
2023-05-13T14:13:33.809Z,4.47
2023-05-13T14:16:02.070Z,3.80
2023-05-13T14:18:30.076Z,4.53
2023-05-13T14:20:58.336Z,4.80
2023-05-13T14:23:26.100Z,3.87
2023-05-13T14:25:54.202Z,4.80
2023-05-13T14:28:24.427Z,3.63
2023-05-13T14:30:53.150Z,3.80
2023-05-13T14:33:21.028Z,3.77
2023-05-13T14:35:49.012Z,3.80
2023-05-13T14:38:16.871Z,5.13
2023-05-13T14:40:45.181Z,4.57
2023-05-13T14:43:12.828Z,3.90
2023-05-13T14:45:40.972Z,4.37
2023-05-13T14:48:08.658Z,4.10
2023-05-13T14:50:36.955Z,4.67
2023-05-13T14:53:04.655Z,5.00
2023-05-13T14:55:32.539Z,4.17
2023-05-13T14:58:01.294Z,3.90
2023-05-13T15:00:29.366Z,4.43
2023-05-13T15:02:57.614Z,3.87
2023-05-13T15:05:26.699Z,4.47
2023-05-13T15:07:54.934Z,3.63
2023-05-13T15:10:22.841Z,3.70
2023-05-13T15:12:50.814Z,3.17
2023-05-13T15:15:18.832Z,3.40
2023-05-13T15:17:47.149Z,4.57
2023-05-13T15:20:14.932Z,3.60
2023-05-13T15:22:43.986Z,3.17
2023-05-13T15:25:12.176Z,3.90
2023-05-13T15:27:40.028Z,3.50
2023-05-13T15:30:09.218Z,3.67
2023-05-13T15:32:37.110Z,3.67
2023-05-13T15:35:06.102Z,4.27
2023-05-13T15:37:33.984Z,6.23
2023-05-13T15:40:02.438Z,6.10
2023-05-13T15:42:30.164Z,6.57
2023-05-13T15:44:57.847Z,7.60
2023-05-13T15:47:25.939Z,8.47
2023-05-13T15:49:54.416Z,34.00
2023-05-13T15:52:22.176Z,26.20
2023-05-13T15:54:50.114Z,23.60
2023-05-13T15:57:19.284Z,16.63
2023-05-13T15:59:47.299Z,15.60
2023-05-13T16:02:15.502Z,10.97
2023-05-13T16:04:43.572Z,13.03
2023-05-13T16:07:12.237Z,12.17
2023-05-13T16:09:42.842Z,13.97
2023-05-13T16:12:12.629Z,12.97
2023-05-13T16:14:40.644Z,16.30
2023-05-13T16:17:08.692Z,16.60
2023-05-13T16:19:36.465Z,10.83
2023-05-13T16:22:40.502Z,7.30
2023-05-13T16:25:11.668Z,7.90
2023-05-13T16:27:43.178Z,7.30
2023-05-13T16:30:12.389Z,6.03
2023-05-13T16:32:40.428Z,6.53
2023-05-13T16:35:11.967Z,4.13
2023-05-13T16:37:40.018Z,3.87
2023-05-13T16:40:09.396Z,2.53
2023-05-13T16:42:37.240Z,3.30
2023-05-13T16:45:07.431Z,3.23
2023-05-13T16:47:35.879Z,3.80
2023-05-13T16:50:03.916Z,3.93
2023-05-13T16:52:32.647Z,3.40
2023-05-13T16:55:00.876Z,3.70
2023-05-13T16:57:28.868Z,3.97
2023-05-13T16:59:57.104Z,4.07
2023-05-13T17:02:25.037Z,4.10
2023-05-13T17:04:52.966Z,3.80
2023-05-13T17:07:22.170Z,4.70
2023-05-13T17:09:49.907Z,4.57
2023-05-13T17:12:17.702Z,4.63
2023-05-13T17:14:45.606Z,4.40
2023-05-13T17:17:13.737Z,4.63
2023-05-13T17:19:42.640Z,4.50
2023-05-13T17:22:11.037Z,5.20
2023-05-13T17:24:39.984Z,6.47
2023-05-13T17:27:09.146Z,4.53
2023-05-13T17:29:37.239Z,5.23
2023-05-13T17:32:05.825Z,5.13
2023-05-13T17:34:33.810Z,5.53
2023-05-13T17:37:01.521Z,4.57
2023-05-13T17:39:29.228Z,5.33
2023-05-13T17:41:57.299Z,5.20
2023-05-13T17:44:25.343Z,5.00
2023-05-13T17:46:53.138Z,6.07
2023-05-13T17:49:21.326Z,5.70
2023-05-13T17:51:49.324Z,5.53
2023-05-13T17:54:17.344Z,5.80
2023-05-13T17:56:45.184Z,5.87
2023-05-13T17:59:12.869Z,6.30
2023-05-13T18:01:40.659Z,6.33
2023-05-13T18:04:08.493Z,6.23
2023-05-13T18:06:36.415Z,5.20
2023-05-13T18:09:04.420Z,4.60
2023-05-13T18:11:32.146Z,4.93
2023-05-13T18:13:59.843Z,4.03
2023-05-13T18:16:27.985Z,4.60
2023-05-13T18:18:55.846Z,4.37
2023-05-13T18:21:24.424Z,4.90
2023-05-13T18:23:52.192Z,4.70
2023-05-13T18:26:21.010Z,5.40
2023-05-13T18:28:49.026Z,5.70
2023-05-13T18:31:17.057Z,5.70
2023-05-13T18:33:44.781Z,6.00
2023-05-13T18:36:12.694Z,5.63
2023-05-13T18:38:40.773Z,6.40
2023-05-13T18:41:09.415Z,7.30
2023-05-13T18:43:38.565Z,8.03
2023-05-13T18:46:06.482Z,7.37
2023-05-13T18:48:34.625Z,7.33
2023-05-13T18:51:02.457Z,8.20
2023-05-13T18:53:30.361Z,9.10
2023-05-13T18:55:58.372Z,7.70
2023-05-13T18:58:26.925Z,9.50
2023-05-13T19:00:54.814Z,9.43
2023-05-13T19:03:23.163Z,10.27
2023-05-13T19:05:52.087Z,9.00
2023-05-13T19:08:20.042Z,8.70
2023-05-13T19:10:47.816Z,9.40
2023-05-13T19:13:19.850Z,9.90
2023-05-13T19:15:47.785Z,10.40
2023-05-13T19:18:15.825Z,12.20
2023-05-13T19:20:46.364Z,12.70
2023-05-13T19:23:15.187Z,15.07
2023-05-13T19:25:43.424Z,15.20
2023-05-13T19:28:16.798Z,15.30
2023-05-13T19:30:44.706Z,16.83
2023-05-13T19:33:12.561Z,17.33
2023-05-13T19:35:40.352Z,17.87
2023-05-13T19:38:08.124Z,17.40
2023-05-13T19:40:35.910Z,17.90
2023-05-13T19:43:03.824Z,17.80
2023-05-13T19:45:31.526Z,13.93
2023-05-13T19:47:59.420Z,14.13
2023-05-13T19:50:27.389Z,14.83
2023-05-13T19:52:55.652Z,13.73
2023-05-13T19:55:23.631Z,16.13
2023-05-13T19:57:52.208Z,17.30
2023-05-13T20:00:21.266Z,19.93
2023-05-13T20:02:49.490Z,25.63
2023-05-13T20:05:17.450Z,24.10
2023-05-13T20:07:45.312Z,21.83
2023-05-13T20:10:13.518Z,20.67
2023-05-13T20:12:41.767Z,19.97
2023-05-13T20:15:10.545Z,19.57
2023-05-13T20:17:38.524Z,19.63
2023-05-13T20:20:08.369Z,21.33
2023-05-13T20:22:36.366Z,22.77
2023-05-13T20:25:04.460Z,20.93
2023-05-13T20:27:32.292Z,22.60
2023-05-13T20:30:01.215Z,24.00
2023-05-13T20:32:29.300Z,24.07
2023-05-13T20:34:57.576Z,23.23
2023-05-13T20:37:25.263Z,22.10
2023-05-13T20:39:53.116Z,21.90
2023-05-13T20:42:24.360Z,22.50
2023-05-13T20:44:52.487Z,24.10
2023-05-13T20:47:21.661Z,23.20
2023-05-13T20:49:49.689Z,23.40
2023-05-13T20:52:17.757Z,22.47
2023-05-13T20:54:45.768Z,22.97
2023-05-13T20:57:13.600Z,23.40
2023-05-13T20:59:41.557Z,24.80
2023-05-13T21:02:09.320Z,23.20
2023-05-13T21:04:37.536Z,24.70
2023-05-13T21:07:06.958Z,24.73
2023-05-13T21:09:35.086Z,23.50
2023-05-13T21:12:03.012Z,22.80
2023-05-13T21:14:31.093Z,23.77
2023-05-13T21:17:03.038Z,24.80
2023-05-13T21:19:31.233Z,23.33
2023-05-13T21:22:01.757Z,22.27
2023-05-13T21:24:35.322Z,21.33
2023-05-13T21:27:04.176Z,22.17
2023-05-13T21:29:32.722Z,23.50
2023-05-13T21:32:00.703Z,22.40
2023-05-13T21:34:29.165Z,22.17
2023-05-13T21:36:57.258Z,23.67
2023-05-13T21:39:25.259Z,22.50
2023-05-13T21:41:53.031Z,23.10
2023-05-13T21:44:20.755Z,22.53
2023-05-13T21:46:48.505Z,21.80
2023-05-13T21:49:19.497Z,20.60
2023-05-13T21:51:47.314Z,20.27
2023-05-13T21:54:15.368Z,20.97
2023-05-13T21:56:43.233Z,18.33
2023-05-13T21:59:11.420Z,18.17
2023-05-13T22:01:39.248Z,19.00
2023-05-13T22:04:07.699Z,18.20
2023-05-13T22:06:36.168Z,18.93
2023-05-13T22:09:04.573Z,18.73
2023-05-13T22:11:32.632Z,19.87
2023-05-13T22:14:00.739Z,19.90
2023-05-13T22:16:28.973Z,19.53
2023-05-13T22:19:00.457Z,20.80
2023-05-13T22:21:28.369Z,22.60
2023-05-13T22:23:56.314Z,23.77
2023-05-13T22:26:24.273Z,30.03
2023-05-13T22:28:51.980Z,27.47
2023-05-13T22:31:21.132Z,24.63
2023-05-13T22:33:49.117Z,21.27
2023-05-13T22:36:16.822Z,22.37
2023-05-13T22:38:44.827Z,22.10
2023-05-13T22:41:13.164Z,22.50
2023-05-13T22:43:40.920Z,21.50
2023-05-13T22:46:08.592Z,22.47
2023-05-13T22:48:36.305Z,20.23
2023-05-13T22:51:04.387Z,19.40
2023-05-13T22:53:32.239Z,22.30
2023-05-13T22:56:00.136Z,21.60
2023-05-13T22:58:27.880Z,21.53
2023-05-13T23:00:55.674Z,21.37
2023-05-13T23:03:23.400Z,22.00
2023-05-13T23:05:52.395Z,22.87
2023-05-13T23:08:20.299Z,21.97
2023-05-13T23:10:48.354Z,22.17
2023-05-13T23:13:16.137Z,21.40
2023-05-13T23:15:43.956Z,21.77
2023-05-13T23:18:13.559Z,21.60
2023-05-13T23:20:41.622Z,20.70
2023-05-13T23:23:09.293Z,20.60
2023-05-13T23:25:37.516Z,20.80
2023-05-13T23:28:05.426Z,21.00
2023-05-13T23:30:33.570Z,19.83
2023-05-13T23:33:01.451Z,20.07
2023-05-13T23:35:30.105Z,20.53
2023-05-13T23:37:58.649Z,19.83
2023-05-13T23:40:26.600Z,20.80
2023-05-13T23:42:54.973Z,21.00
2023-05-13T23:45:22.672Z,22.60
2023-05-13T23:47:51.150Z,22.50
2023-05-13T23:50:19.017Z,19.93
2023-05-13T23:52:51.216Z,21.30
2023-05-13T23:55:22.484Z,20.00
2023-05-13T23:57:50.631Z,20.40
